オウル の空港の天気 - METARとTAF

オウル空港 ( EFOU / OUL ) - フィンランド Oulunsalo
飛行場実況気象(Metar)
観測時間08/17 06:20 EEST (08/17 03:20 UTC)
風向・風速南西 5m/s
視程10km以上
天気現象
なし
気温14℃
湿度82%
気圧1016hPa
METAREFOU 170320Z AUTO 23010KT CAVOK 14/11 Q1016
過去の天気等 Google飛行場航空写真 Wunderground天気予報

過去48時間のMETAR

飛行場予報(TAF)
発表時間: 8/17 05:28 EEST (8/17 02:28 UTC)
予報対象時間: 17日6時 EEST ~ 18日6時 EEST
風向・風速西南西 6m/s
視程10km以上
少しの雲 雲底高度 460m
全天の8割程度の雲 雲底高度 610m
17日6時 EEST ~ 17日7時 EEST に一時的に
全天の8割程度の雲 雲底高度 370m
17日18時 EEST ~ 17日20時 EEST に徐々に
風向・風速東北東 2m/s
18日5時 EEST から 確率 30% で
視程2,000m
天気現象もや
TAF EFOU 170228Z 1703/1803 25011KT 9999 FEW015 BKN020
TEMPO 1703/1704 BKN012
BECMG 1715/1717 07004KT
PROB30 1802/1803 2000 BR